sensor_id;sensor_type;location;lat;lon;timestamp;P1;durP1;ratioP1;P2;durP2;ratioP2
5678;SDS011;2862;52.560;13.566;2022-11-20T00:03:07;44.83;;;14.43;;
5678;SDS011;2862;52.560;13.566;2022-11-20T00:13:11;44.40;;;16.10;;
5678;SDS011;2862;52.560;13.566;2022-11-20T00:23:14;39.43;;;14.37;;
5678;SDS011;2862;52.560;13.566;2022-11-20T00:33:18;37.47;;;14.30;;
5678;SDS011;2862;52.560;13.566;2022-11-20T00:43:21;39.77;;;15.10;;
5678;SDS011;2862;52.560;13.566;2022-11-20T00:53:25;38.77;;;14.07;;
5678;SDS011;2862;52.560;13.566;2022-11-20T01:03:30;43.50;;;16.63;;
5678;SDS011;2862;52.560;13.566;2022-11-20T01:13:35;38.87;;;14.20;;
5678;SDS011;2862;52.560;13.566;2022-11-20T01:23:42;46.83;;;13.87;;
5678;SDS011;2862;52.560;13.566;2022-11-20T01:33:48;31.53;;;11.70;;
5678;SDS011;2862;52.560;13.566;2022-11-20T01:43:52;35.33;;;12.03;;
5678;SDS011;2862;52.560;13.566;2022-11-20T01:53:57;35.10;;;12.03;;
5678;SDS011;2862;52.560;13.566;2022-11-20T02:04:03;35.20;;;12.80;;
5678;SDS011;2862;52.560;13.566;2022-11-20T02:14:08;34.43;;;11.63;;
5678;SDS011;2862;52.560;13.566;2022-11-20T02:24:14;37.10;;;12.40;;
5678;SDS011;2862;52.560;13.566;2022-11-20T02:34:18;36.97;;;14.07;;
5678;SDS011;2862;52.560;13.566;2022-11-20T02:44:22;37.13;;;12.73;;
5678;SDS011;2862;52.560;13.566;2022-11-20T02:54:25;36.00;;;11.90;;
5678;SDS011;2862;52.560;13.566;2022-11-20T03:04:30;39.57;;;12.43;;
5678;SDS011;2862;52.560;13.566;2022-11-20T03:14:34;38.20;;;13.63;;
5678;SDS011;2862;52.560;13.566;2022-11-20T03:24:38;39.90;;;12.70;;
5678;SDS011;2862;52.560;13.566;2022-11-20T03:34:41;35.10;;;13.10;;
5678;SDS011;2862;52.560;13.566;2022-11-20T03:44:45;36.53;;;12.90;;
5678;SDS011;2862;52.560;13.566;2022-11-20T03:54:48;37.17;;;12.43;;
5678;SDS011;2862;52.560;13.566;2022-11-20T04:04:53;40.83;;;14.27;;
5678;SDS011;2862;52.560;13.566;2022-11-20T04:14:56;35.03;;;13.30;;
5678;SDS011;2862;52.560;13.566;2022-11-20T04:25:00;36.10;;;13.03;;
5678;SDS011;2862;52.560;13.566;2022-11-20T04:35:03;39.03;;;14.60;;
5678;SDS011;2862;52.560;13.566;2022-11-20T04:45:11;37.10;;;14.03;;
5678;SDS011;2862;52.560;13.566;2022-11-20T04:55:16;31.67;;;12.13;;
5678;SDS011;2862;52.560;13.566;2022-11-20T05:05:21;38.67;;;14.30;;
5678;SDS011;2862;52.560;13.566;2022-11-20T05:15:26;38.37;;;14.20;;
5678;SDS011;2862;52.560;13.566;2022-11-20T05:25:37;36.80;;;13.70;;
5678;SDS011;2862;52.560;13.566;2022-11-20T05:35:43;42.73;;;13.77;;
5678;SDS011;2862;52.560;13.566;2022-11-20T05:45:52;40.80;;;15.33;;
5678;SDS011;2862;52.560;13.566;2022-11-20T05:55:56;45.20;;;15.17;;
5678;SDS011;2862;52.560;13.566;2022-11-20T06:06:01;35.97;;;12.33;;
5678;SDS011;2862;52.560;13.566;2022-11-20T06:16:06;35.17;;;13.43;;
5678;SDS011;2862;52.560;13.566;2022-11-20T06:26:11;40.73;;;12.20;;
5678;SDS011;2862;52.560;13.566;2022-11-20T06:36:15;35.60;;;13.27;;
5678;SDS011;2862;52.560;13.566;2022-11-20T06:46:21;41.07;;;15.40;;
5678;SDS011;2862;52.560;13.566;2022-11-20T06:56:24;39.30;;;12.77;;
5678;SDS011;2862;52.560;13.566;2022-11-20T07:06:28;44.00;;;14.53;;
5678;SDS011;2862;52.560;13.566;2022-11-20T07:16:31;38.00;;;14.33;;
5678;SDS011;2862;52.560;13.566;2022-11-20T07:26:36;38.80;;;15.17;;
5678;SDS011;2862;52.560;13.566;2022-11-20T07:36:39;37.57;;;13.60;;
5678;SDS011;2862;52.560;13.566;2022-11-20T07:46:43;36.40;;;13.97;;
5678;SDS011;2862;52.560;13.566;2022-11-20T07:56:46;39.50;;;14.60;;
5678;SDS011;2862;52.560;13.566;2022-11-20T08:06:51;35.07;;;13.17;;
5678;SDS011;2862;52.560;13.566;2022-11-20T08:16:54;38.17;;;12.50;;
5678;SDS011;2862;52.560;13.566;2022-11-20T08:26:59;34.27;;;13.03;;
5678;SDS011;2862;52.560;13.566;2022-11-20T08:37:02;49.47;;;18.67;;
5678;SDS011;2862;52.560;13.566;2022-11-20T08:47:07;39.40;;;14.53;;
5678;SDS011;2862;52.560;13.566;2022-11-20T08:57:09;48.70;;;21.00;;
5678;SDS011;2862;52.560;13.566;2022-11-20T09:07:13;34.97;;;14.03;;
5678;SDS011;2862;52.560;13.566;2022-11-20T09:17:17;52.50;;;18.83;;
5678;SDS011;2862;52.560;13.566;2022-11-20T09:27:22;46.50;;;17.93;;
5678;SDS011;2862;52.560;13.566;2022-11-20T09:37:25;36.50;;;13.67;;
5678;SDS011;2862;52.560;13.566;2022-11-20T09:47:33;38.30;;;14.03;;
5678;SDS011;2862;52.560;13.566;2022-11-20T09:57:46;36.60;;;13.30;;
5678;SDS011;2862;52.560;13.566;2022-11-20T10:07:52;36.77;;;13.77;;
5678;SDS011;2862;52.560;13.566;2022-11-20T10:18:02;36.20;;;13.50;;
5678;SDS011;2862;52.560;13.566;2022-11-20T10:28:23;33.17;;;12.60;;
5678;SDS011;2862;52.560;13.566;2022-11-20T10:38:34;41.57;;;14.30;;
5678;SDS011;2862;52.560;13.566;2022-11-20T10:48:46;35.97;;;13.70;;
5678;SDS011;2862;52.560;13.566;2022-11-20T10:58:54;41.00;;;12.77;;
5678;SDS011;2862;52.560;13.566;2022-11-20T11:09:09;33.53;;;13.43;;
5678;SDS011;2862;52.560;13.566;2022-11-20T11:19:17;33.40;;;13.47;;
5678;SDS011;2862;52.560;13.566;2022-11-20T11:29:21;36.27;;;13.27;;
5678;SDS011;2862;52.560;13.566;2022-11-20T11:39:26;35.10;;;14.40;;
5678;SDS011;2862;52.560;13.566;2022-11-20T11:49:32;33.13;;;13.53;;
5678;SDS011;2862;52.560;13.566;2022-11-20T11:59:41;35.00;;;13.73;;
5678;SDS011;2862;52.560;13.566;2022-11-20T12:09:55;38.03;;;14.60;;
5678;SDS011;2862;52.560;13.566;2022-11-20T12:20:01;36.20;;;14.33;;
5678;SDS011;2862;52.560;13.566;2022-11-20T12:30:07;33.90;;;13.07;;
5678;SDS011;2862;52.560;13.566;2022-11-20T12:40:15;35.37;;;14.03;;
5678;SDS011;2862;52.560;13.566;2022-11-20T12:50:34;35.60;;;13.77;;
5678;SDS011;2862;52.560;13.566;2022-11-20T13:01:03;33.37;;;12.07;;
5678;SDS011;2862;52.560;13.566;2022-11-20T13:11:41;61.93;;;24.63;;
5678;SDS011;2862;52.560;13.566;2022-11-20T13:21:48;32.93;;;12.47;;
5678;SDS011;2862;52.560;13.566;2022-11-20T13:32:00;37.93;;;12.80;;
5678;SDS011;2862;52.560;13.566;2022-11-20T13:42:20;26.07;;;9.17;;
5678;SDS011;2862;52.560;13.566;2022-11-20T13:52:33;22.37;;;7.87;;
5678;SDS011;2862;52.560;13.566;2022-11-20T14:02:48;24.00;;;7.33;;
5678;SDS011;2862;52.560;13.566;2022-11-20T14:13:10;22.60;;;6.30;;
5678;SDS011;2862;52.560;13.566;2022-11-20T14:23:23;29.30;;;8.07;;
5678;SDS011;2862;52.560;13.566;2022-11-20T14:33:31;26.13;;;8.37;;
5678;SDS011;2862;52.560;13.566;2022-11-20T14:43:36;28.67;;;9.07;;
5678;SDS011;2862;52.560;13.566;2022-11-20T14:53:41;27.30;;;10.17;;
5678;SDS011;2862;52.560;13.566;2022-11-20T15:03:44;27.23;;;9.90;;
5678;SDS011;2862;52.560;13.566;2022-11-20T15:14:02;30.23;;;7.90;;
5678;SDS011;2862;52.560;13.566;2022-11-20T15:24:07;23.17;;;7.73;;
5678;SDS011;2862;52.560;13.566;2022-11-20T15:34:16;24.10;;;7.30;;
5678;SDS011;2862;52.560;13.566;2022-11-20T15:44:19;25.93;;;6.90;;
5678;SDS011;2862;52.560;13.566;2022-11-20T15:54:24;29.90;;;7.93;;
5678;SDS011;2862;52.560;13.566;2022-11-20T16:04:26;33.30;;;9.47;;
5678;SDS011;2862;52.560;13.566;2022-11-20T16:14:43;35.90;;;10.87;;
5678;SDS011;2862;52.560;13.566;2022-11-20T16:25:04;26.57;;;9.47;;
5678;SDS011;2862;52.560;13.566;2022-11-20T16:35:09;24.90;;;8.73;;
5678;SDS011;2862;52.560;13.566;2022-11-20T16:45:12;29.57;;;10.83;;
5678;SDS011;2862;52.560;13.566;2022-11-20T16:55:21;30.60;;;9.20;;
5678;SDS011;2862;52.560;13.566;2022-11-20T17:05:28;27.40;;;9.13;;
5678;SDS011;2862;52.560;13.566;2022-11-20T17:15:32;23.70;;;7.90;;
5678;SDS011;2862;52.560;13.566;2022-11-20T17:25:35;31.50;;;11.40;;
5678;SDS011;2862;52.560;13.566;2022-11-20T17:35:40;23.97;;;7.30;;
5678;SDS011;2862;52.560;13.566;2022-11-20T17:45:43;24.70;;;8.43;;
5678;SDS011;2862;52.560;13.566;2022-11-20T17:55:54;24.90;;;9.40;;
5678;SDS011;2862;52.560;13.566;2022-11-20T18:06:16;27.60;;;8.97;;
5678;SDS011;2862;52.560;13.566;2022-11-20T18:16:21;28.53;;;9.93;;
5678;SDS011;2862;52.560;13.566;2022-11-20T18:26:24;28.03;;;9.73;;
5678;SDS011;2862;52.560;13.566;2022-11-20T18:36:29;28.33;;;8.57;;
5678;SDS011;2862;52.560;13.566;2022-11-20T18:46:33;33.60;;;10.63;;
5678;SDS011;2862;52.560;13.566;2022-11-20T18:56:37;31.70;;;10.53;;
5678;SDS011;2862;52.560;13.566;2022-11-20T19:06:41;29.70;;;10.63;;
5678;SDS011;2862;52.560;13.566;2022-11-20T19:16:46;31.60;;;11.40;;
5678;SDS011;2862;52.560;13.566;2022-11-20T19:26:49;36.23;;;10.63;;
5678;SDS011;2862;52.560;13.566;2022-11-20T19:36:53;26.90;;;8.80;;
5678;SDS011;2862;52.560;13.566;2022-11-20T19:46:56;30.47;;;11.23;;
5678;SDS011;2862;52.560;13.566;2022-11-20T19:57:00;31.67;;;9.93;;
5678;SDS011;2862;52.560;13.566;2022-11-20T20:07:03;29.57;;;10.73;;
5678;SDS011;2862;52.560;13.566;2022-11-20T20:17:08;46.47;;;19.73;;
5678;SDS011;2862;52.560;13.566;2022-11-20T20:27:11;26.50;;;9.30;;
5678;SDS011;2862;52.560;13.566;2022-11-20T20:37:15;27.40;;;9.70;;
5678;SDS011;2862;52.560;13.566;2022-11-20T20:47:18;28.33;;;9.60;;
5678;SDS011;2862;52.560;13.566;2022-11-20T20:57:22;30.93;;;11.63;;
5678;SDS011;2862;52.560;13.566;2022-11-20T21:07:28;27.93;;;8.93;;
5678;SDS011;2862;52.560;13.566;2022-11-20T21:17:32;35.67;;;12.63;;
5678;SDS011;2862;52.560;13.566;2022-11-20T21:27:35;29.00;;;9.90;;
5678;SDS011;2862;52.560;13.566;2022-11-20T21:37:39;35.77;;;11.10;;
5678;SDS011;2862;52.560;13.566;2022-11-20T21:47:41;25.93;;;9.40;;
5678;SDS011;2862;52.560;13.566;2022-11-20T21:57:46;29.77;;;10.77;;
5678;SDS011;2862;52.560;13.566;2022-11-20T22:07:49;29.50;;;10.80;;
5678;SDS011;2862;52.560;13.566;2022-11-20T22:17:53;31.00;;;10.17;;
5678;SDS011;2862;52.560;13.566;2022-11-20T22:28:14;32.23;;;11.60;;
5678;SDS011;2862;52.560;13.566;2022-11-20T22:38:18;30.37;;;11.57;;
5678;SDS011;2862;52.560;13.566;2022-11-20T22:48:21;36.33;;;13.43;;
5678;SDS011;2862;52.560;13.566;2022-11-20T22:58:25;36.20;;;13.33;;
5678;SDS011;2862;52.560;13.566;2022-11-20T23:08:29;40.00;;;15.17;;
5678;SDS011;2862;52.560;13.566;2022-11-20T23:18:33;44.90;;;15.50;;
5678;SDS011;2862;52.560;13.566;2022-11-20T23:28:37;45.37;;;15.67;;
5678;SDS011;2862;52.560;13.566;2022-11-20T23:38:42;46.10;;;17.30;;
5678;SDS011;2862;52.560;13.566;2022-11-20T23:48:45;45.93;;;18.17;;
5678;SDS011;2862;52.560;13.566;2022-11-20T23:58:49;36.07;;;13.87;;
